Funchalense 5 — CSKN — position and weather

sailwx.info

Track history (hours):
 
Tides and Currents Weather Stations Pressure Air Temp Water Temp Dewpoint Dewpoint Depression Visibility Wind Speed Wind Dir Waves Ship Positions

Funchalense 5

Last reported at 2017-Jun-26 07:04 UTC. Time now 2017-Jun-28 17:38 UTC.
Position N 32°44' W 016°44'.

Length 127 m; draft 7.5 m.

Type: Ship. MMSI: 255804250.

Date/timePositionNaut miles runAvg speedWind from/ knotsBaromVisibWave heightAir tempDewpointWater temp
2017-Jun-26 07:04N 32°44' W 016°44'0 0.1
2017-Jun-26 06:39N 32°44' W 016°44'1 2.8
2017-Jun-26 06:26N 32°44' W 016°44'5 7.7
2017-Jun-26 05:48N 32°43' W 016°39'23314.9
2017-Jun-25 14:07N 35°27' W 013°19'11315.4
2017-Jun-25 06:47N 36°48' W 011°42'414.0
2017-Jun-25 06:30N 36°51' W 011°38'714.4
2017-Jun-25 06:01N 36°56' W 011°32'1314.4
2017-Jun-25 05:08N 37°05' W 011°21'214.2
2017-Jun-25 05:00N 37°06' W 011°19'714.4
2017-Jun-25 04:30N 37°11' W 011°13'814.5
2017-Jun-25 03:58N 37°16' W 011°06'714.2
2017-Jun-25 03:31N 37°21' W 010°60'814.4
2017-Jun-25 02:58N 37°26' W 010°53'614.3
2017-Jun-25 02:30N 37°31' W 010°47'814.6
2017-Jun-25 02:00N 37°37' W 010°41'714.7
2017-Jun-25 01:30N 37°41' W 010°34'714.7
2017-Jun-25 01:00N 37°47' W 010°27'814.9
2017-Jun-25 00:30N 37°52' W 010°21'714.9
2017-Jun-25 00:00N 37°57' W 010°14'815.1
2017-Jun-24 23:30N 38°02' W 010°07'714.9
2017-Jun-24 23:00N 38°08' W 010°00'815.1
2017-Jun-24 22:30N 38°13' W 009°54'815.4
2017-Jun-24 22:00N 38°19' W 009°47'815.1
2017-Jun-24 21:30N 38°24' W 009°40'815.1
2017-Jun-24 21:00N 38°29' W 009°33'815.1
2017-Jun-24 20:30N 38°35' W 009°26'815.3
2017-Jun-24 19:58N 38°40' W 009°19'814.0
2017-Jun-24 19:25N 38°42' W 009°09'2 5.4
2017-Jun-24 19:00N 38°43' W 009°07'0 0.0
2017-Jun-24 18:31N 38°43' W 009°07'0 0.2
2017-Jun-24 18:01N 38°43' W 009°07'0 0.0
2017-Jun-24 17:30N 38°43' W 009°07'0 0.0
2017-Jun-24 17:00N 38°43' W 009°07'0 0.0
2017-Jun-24 16:31N 38°43' W 009°07'0 0.0
2017-Jun-24 16:00N 38°43' W 009°07'0 0.0
2017-Jun-24 15:30N 38°43' W 009°07'0 0.0
2017-Jun-24 15:00N 38°43' W 009°07'0 0.0
2017-Jun-24 14:01N 38°43' W 009°07'0 0.0
2017-Jun-24 13:30N 38°43' W 009°07'0 0.0
2017-Jun-24 13:00N 38°43' W 009°07'0 0.0
2017-Jun-24 12:30N 38°43' W 009°07'0 0.0
2017-Jun-24 12:00N 38°43' W 009°07'0 0.0
2017-Jun-24 11:30N 38°43' W 009°07'0 0.0
2017-Jun-24 11:01N 38°43' W 009°07'0 0.0
2017-Jun-24 10:30N 38°43' W 009°07'0 0.0
2017-Jun-24 10:01N 38°43' W 009°07'0 0.3
2017-Jun-24 09:30N 38°43' W 009°07'610.2
2017-Jun-24 08:53N 38°41' W 009°14'410.9
2017-Jun-24 08:28N 38°39' W 009°20'612.3
2017-Jun-24 08:00N 38°37' W 009°26'815.1
2017-Jun-24 07:30N 38°38' W 009°36'713.1
2017-Jun-24 07:00N 38°41' W 009°43'815.3
2017-Jun-24 06:30N 38°49' W 009°44'815.5
2017-Jun-24 06:00N 38°57' W 009°44'815.7
2017-Jun-24 05:30N 39°05' W 009°45'815.2
2017-Jun-24 05:00N 39°12' W 009°44'815.8
2017-Jun-24 04:30N 39°20' W 009°45'3616.2
2017-Jun-24 02:16N 39°55' W 009°32'27 0.9
2017-Jun-22 21:56N 39°30' W 009°44'614.1
2017-Jun-22 21:30N 39°24' W 009°44'714.2
2017-Jun-22 21:00N 39°17' W 009°44'714.3
2017-Jun-22 20:30N 39°10' W 009°44'714.4
2017-Jun-22 20:01N 39°03' W 009°44'714.3
2017-Jun-22 19:30N 38°55' W 009°43'714.4
2017-Jun-22 19:01N 38°48' W 009°42'714.4
2017-Jun-22 18:31N 38°41' W 009°41'612.3
2017-Jun-22 18:00N 38°38' W 009°34'714.3
2017-Jun-22 17:31N 38°37' W 009°25'815.4
2017-Jun-22 17:00N 38°41' W 009°17'713.3
2017-Jun-22 16:30N 38°42' W 009°08'2 3.6
2017-Jun-22 15:58N 38°43' W 009°07'0 0.0
2017-Jun-22 15:28N 38°43' W 009°07'0 0.2
2017-Jun-22 15:01N 38°43' W 009°07'0 0.0
2017-Jun-22 14:00N 38°43' W 009°07'0 0.0
2017-Jun-22 13:30N 38°43' W 009°07'0 0.0
2017-Jun-22 13:01N 38°43' W 009°07'0 0.0
2017-Jun-22 12:30N 38°43' W 009°07'0 0.0
2017-Jun-22 12:01N 38°43' W 009°07'0 0.0
2017-Jun-22 11:26N 38°43' W 009°07'0 0.0
2017-Jun-22 10:59N 38°43' W 009°07'0 0.0
2017-Jun-22 10:30N 38°43' W 009°07'0 0.0
2017-Jun-22 10:01N 38°43' W 009°07'0 0.0
2017-Jun-22 09:31N 38°43' W 009°07'0 0.0
2017-Jun-22 08:57N 38°43' W 009°07'0 0.0
2017-Jun-22 08:30N 38°43' W 009°07'0 0.0
2017-Jun-22 07:47N 38°43' W 009°07'0 0.0
2017-Jun-22 07:30N 38°43' W 009°07'0 0.0
2017-Jun-22 07:00N 38°43' W 009°07'0 0.1
2017-Jun-22 06:30N 38°43' W 009°07'510.4
2017-Jun-22 05:59N 38°41' W 009°13'710.2
2017-Jun-22 05:20N 38°38' W 009°21'514.1
2017-Jun-22 05:00N 38°35' W 009°25'714.6
2017-Jun-22 04:30N 38°30' W 009°32'714.5
2017-Jun-22 04:00N 38°25' W 009°38'714.6
2017-Jun-22 03:30N 38°19' W 009°44'1614.5
2017-Jun-22 02:25N 38°09' W 009°59'714.9
2017-Jun-22 01:59N 38°04' W 010°05'714.9
2017-Jun-22 01:30N 37°59' W 010°11'714.9
2017-Jun-22 01:00N 37°54' W 010°18'814.4
2017-Jun-22 00:29N 37°48' W 010°24'714.3
2017-Jun-22 00:01N 37°43' W 010°30'714.7
2017-Jun-21 23:31N 37°38' W 010°37'714.6
2017-Jun-21 23:01N 37°33' W 010°44'714.6
2017-Jun-21 22:31N 37°28' W 010°50'714.6
2017-Jun-21 22:00N 37°22' W 010°56'1114.3
2017-Jun-21 21:14N 37°14' W 011°06'314.2
2017-Jun-21 21:00N 37°12' W 011°08'  
2017-Jun-18 12:00N 35°50' W 012°53'714.9
2017-Jun-18 11:30N 35°55' W 012°46'815.2
2017-Jun-18 11:01N 36°00' W 012°40'815.4
2017-Jun-18 10:30N 36°06' W 012°33'815.4
2017-Jun-18 10:00N 36°11' W 012°26'815.4
2017-Jun-18 09:30N 36°16' W 012°19'815.5
2017-Jun-18 09:00N 36°22' W 012°12'815.4
2017-Jun-18 08:30N 36°27' W 012°06'815.2
2017-Jun-18 08:00N 36°33' W 011°59'815.1
2017-Jun-18 07:30N 36°38' W 011°52'714.9
2017-Jun-18 07:00N 36°43' W 011°46'815.2
2017-Jun-18 06:30N 36°49' W 011°39'815.0
2017-Jun-18 06:00N 36°54' W 011°33'815.4
2017-Jun-18 05:30N 36°60' W 011°26'815.2
2017-Jun-18 05:00N 37°05' W 011°19'815.2
2017-Jun-18 04:30N 37°10' W 011°13'815.4
2017-Jun-18 04:01N 37°16' W 011°06'815.7
2017-Jun-18 03:31N 37°21' W 010°59'815.4
2017-Jun-18 03:00N 37°27' W 010°52'815.3
2017-Jun-18 02:30N 37°33' W 010°46'815.2
2017-Jun-18 02:00N 37°38' W 010°39'714.8
2017-Jun-18 01:30N 37°43' W 010°32'714.7
2017-Jun-18 01:00N 37°49' W 010°26'714.7
2017-Jun-18 00:30N 37°54' W 010°19'714.8
2017-Jun-18 00:00N 37°59' W 010°12'815.0
2017-Jun-17 23:30N 38°04' W 010°05'715.1
2017-Jun-17 23:00N 38°09' W 009°58'815.2
2017-Jun-17 22:30N 38°14' W 009°52'815.4
2017-Jun-17 22:00N 38°20' W 009°45'815.5
2017-Jun-17 21:30N 38°26' W 009°38'815.4
2017-Jun-17 21:00N 38°31' W 009°31'815.5
2017-Jun-17 20:30N 38°36' W 009°24'714.3
2017-Jun-17 20:00N 38°41' W 009°17'612.0
2017-Jun-17 19:30N 38°42' W 009°09'2 4.7
2017-Jun-17 19:00N 38°43' W 009°07'0 0.0
2017-Jun-17 18:30N 38°43' W 009°07'0 0.2
2017-Jun-17 18:00N 38°43' W 009°07'0 0.0
2017-Jun-17 17:30N 38°43' W 009°07'0 0.0
2017-Jun-17 17:00N 38°43' W 009°07'0 0.0
2017-Jun-17 16:30N 38°43' W 009°07'0 0.0
2017-Jun-17 16:00N 38°43' W 009°07'0 0.0
2017-Jun-17 15:30N 38°43' W 009°07'0 0.0
2017-Jun-17 15:00N 38°43' W 009°07'0 0.0
2017-Jun-17 14:00N 38°43' W 009°07'0 0.0
2017-Jun-17 13:30N 38°43' W 009°07'0 0.0
2017-Jun-17 13:00N 38°43' W 009°07'0 0.0
2017-Jun-17 12:30N 38°43' W 009°07'0 0.0
2017-Jun-17 12:00N 38°43' W 009°07'0 0.0
2017-Jun-17 11:30N 38°43' W 009°07'0 0.0
2017-Jun-17 11:00N 38°43' W 009°07'0 0.0
2017-Jun-17 10:30N 38°43' W 009°07'0 0.0
2017-Jun-17 10:00N 38°43' W 009°07'0 0.0
2017-Jun-17 09:30N 38°43' W 009°07'0 0.0
2017-Jun-17 09:00N 38°43' W 009°07'0 0.0
2017-Jun-17 08:30N 38°43' W 009°07'0 0.0
2017-Jun-17 08:00N 38°43' W 009°07'0 0.4
2017-Jun-17 07:30N 38°43' W 009°06'5 9.0
2017-Jun-17 06:59N 38°41' W 009°12'612.1
2017-Jun-17 06:30N 38°40' W 009°19'815.4
2017-Jun-17 06:00N 38°37' W 009°28'816.7
2017-Jun-17 05:30N 38°39' W 009°39'714.9
2017-Jun-17 05:00N 38°45' W 009°43'917.1
2017-Jun-17 04:30N 38°54' W 009°44'817.0
2017-Jun-17 04:00N 39°02' W 009°44'816.6
2017-Jun-17 03:30N 39°11' W 009°44'917.3
2017-Jun-17 03:00N 39°19' W 009°47'816.8
2017-Jun-17 02:30N 39°28' W 009°46'816.1
2017-Jun-17 02:00N 39°35' W 009°42'817.0
2017-Jun-17 01:30N 39°43' W 009°37'917.0
2017-Jun-17 01:00N 39°50' W 009°31'917.4
2017-Jun-17 00:30N 39°59' W 009°29'816.6
2017-Jun-17 00:00N 40°06' W 009°24'816.8
2017-Jun-16 23:30N 40°13' W 009°19'817.0
2017-Jun-16 23:00N 40°21' W 009°14'816.7
2017-Jun-16 22:30N 40°29' W 009°10'917.1
2017-Jun-16 22:00N 40°37' W 009°05'916.5
2017-Jun-16 21:29N 40°45' W 009°01'816.5
2017-Jun-16 21:00N 40°52' W 008°56'816.5
2017-Jun-16 20:30N 40°59' W 008°51'14 9.1
2017-Jun-16 18:59N 41°11' W 008°42'0 0.1
2017-Jun-16 18:29N 41°11' W 008°42'0 0.0
2017-Jun-16 18:00N 41°11' W 008°42'0 0.0
2017-Jun-16 17:30N 41°11' W 008°42'0 0.0
2017-Jun-16 16:59N 41°11' W 008°42'0 0.0
2017-Jun-16 16:30N 41°11' W 008°42'0 0.0
2017-Jun-16 16:00N 41°11' W 008°42'  
Track history (hours):
 
Tides and Currents Weather Stations Pressure Air Temp Water Temp Dewpoint Dewpoint Depression Visibility Wind Speed Wind Dir Waves Ship Positions

Funchalense 5

Last reported at 2017-Jun-26 07:04 UTC. Time now 2017-Jun-28 17:38 UTC.
Position N 32°44' W 016°44'.

Length 127 m; draft 7.5 m.

Type: Ship. MMSI: 255804250.

Date/timePositionNaut miles runAvg speedWind from/ knotsBaromVisibWave heightAir tempDewpointWater temp
2017-Jun-26 07:04N 32°44' W 016°44'0 0.1
2017-Jun-26 06:39N 32°44' W 016°44'1 2.8
2017-Jun-26 06:26N 32°44' W 016°44'5 7.7
2017-Jun-26 05:48N 32°43' W 016°39'23314.9
2017-Jun-25 14:07N 35°27' W 013°19'11315.4
2017-Jun-25 06:47N 36°48' W 011°42'414.0
2017-Jun-25 06:30N 36°51' W 011°38'714.4
2017-Jun-25 06:01N 36°56' W 011°32'1314.4
2017-Jun-25 05:08N 37°05' W 011°21'214.2
2017-Jun-25 05:00N 37°06' W 011°19'714.4
2017-Jun-25 04:30N 37°11' W 011°13'814.5
2017-Jun-25 03:58N 37°16' W 011°06'714.2
2017-Jun-25 03:31N 37°21' W 010°60'814.4
2017-Jun-25 02:58N 37°26' W 010°53'614.3
2017-Jun-25 02:30N 37°31' W 010°47'814.6
2017-Jun-25 02:00N 37°37' W 010°41'714.7
2017-Jun-25 01:30N 37°41' W 010°34'714.7
2017-Jun-25 01:00N 37°47' W 010°27'814.9
2017-Jun-25 00:30N 37°52' W 010°21'714.9
2017-Jun-25 00:00N 37°57' W 010°14'815.1
2017-Jun-24 23:30N 38°02' W 010°07'714.9
2017-Jun-24 23:00N 38°08' W 010°00'815.1
2017-Jun-24 22:30N 38°13' W 009°54'815.4
2017-Jun-24 22:00N 38°19' W 009°47'815.1
2017-Jun-24 21:30N 38°24' W 009°40'815.1
2017-Jun-24 21:00N 38°29' W 009°33'815.1
2017-Jun-24 20:30N 38°35' W 009°26'815.3
2017-Jun-24 19:58N 38°40' W 009°19'814.0
2017-Jun-24 19:25N 38°42' W 009°09'2 5.4
2017-Jun-24 19:00N 38°43' W 009°07'0 0.0
2017-Jun-24 18:31N 38°43' W 009°07'0 0.2
2017-Jun-24 18:01N 38°43' W 009°07'0 0.0
2017-Jun-24 17:30N 38°43' W 009°07'0 0.0
2017-Jun-24 17:00N 38°43' W 009°07'0 0.0
2017-Jun-24 16:31N 38°43' W 009°07'0 0.0
2017-Jun-24 16:00N 38°43' W 009°07'0 0.0
2017-Jun-24 15:30N 38°43' W 009°07'0 0.0
2017-Jun-24 15:00N 38°43' W 009°07'0 0.0
2017-Jun-24 14:01N 38°43' W 009°07'0 0.0
2017-Jun-24 13:30N 38°43' W 009°07'0 0.0
2017-Jun-24 13:00N 38°43' W 009°07'0 0.0
2017-Jun-24 12:30N 38°43' W 009°07'0 0.0
2017-Jun-24 12:00N 38°43' W 009°07'0 0.0
2017-Jun-24 11:30N 38°43' W 009°07'0 0.0
2017-Jun-24 11:01N 38°43' W 009°07'0 0.0
2017-Jun-24 10:30N 38°43' W 009°07'0 0.0
2017-Jun-24 10:01N 38°43' W 009°07'0 0.3
2017-Jun-24 09:30N 38°43' W 009°07'610.2
2017-Jun-24 08:53N 38°41' W 009°14'410.9
2017-Jun-24 08:28N 38°39' W 009°20'612.3
2017-Jun-24 08:00N 38°37' W 009°26'815.1
2017-Jun-24 07:30N 38°38' W 009°36'713.1
2017-Jun-24 07:00N 38°41' W 009°43'815.3
2017-Jun-24 06:30N 38°49' W 009°44'815.5
2017-Jun-24 06:00N 38°57' W 009°44'815.7
2017-Jun-24 05:30N 39°05' W 009°45'815.2
2017-Jun-24 05:00N 39°12' W 009°44'815.8
2017-Jun-24 04:30N 39°20' W 009°45'3616.2
2017-Jun-24 02:16N 39°55' W 009°32'27 0.9
2017-Jun-22 21:56N 39°30' W 009°44'614.1
2017-Jun-22 21:30N 39°24' W 009°44'714.2
2017-Jun-22 21:00N 39°17' W 009°44'714.3
2017-Jun-22 20:30N 39°10' W 009°44'714.4
2017-Jun-22 20:01N 39°03' W 009°44'714.3
2017-Jun-22 19:30N 38°55' W 009°43'714.4
2017-Jun-22 19:01N 38°48' W 009°42'714.4
2017-Jun-22 18:31N 38°41' W 009°41'612.3
2017-Jun-22 18:00N 38°38' W 009°34'714.3
2017-Jun-22 17:31N 38°37' W 009°25'815.4
2017-Jun-22 17:00N 38°41' W 009°17'713.3
2017-Jun-22 16:30N 38°42' W 009°08'2 3.6
2017-Jun-22 15:58N 38°43' W 009°07'0 0.0
2017-Jun-22 15:28N 38°43' W 009°07'0 0.2
2017-Jun-22 15:01N 38°43' W 009°07'0 0.0
2017-Jun-22 14:00N 38°43' W 009°07'0 0.0
2017-Jun-22 13:30N 38°43' W 009°07'0 0.0
2017-Jun-22 13:01N 38°43' W 009°07'0 0.0
2017-Jun-22 12:30N 38°43' W 009°07'0 0.0
2017-Jun-22 12:01N 38°43' W 009°07'0 0.0
2017-Jun-22 11:26N 38°43' W 009°07'0 0.0
2017-Jun-22 10:59N 38°43' W 009°07'0 0.0
2017-Jun-22 10:30N 38°43' W 009°07'0 0.0
2017-Jun-22 10:01N 38°43' W 009°07'0 0.0
2017-Jun-22 09:31N 38°43' W 009°07'0 0.0
2017-Jun-22 08:57N 38°43' W 009°07'0 0.0
2017-Jun-22 08:30N 38°43' W 009°07'0 0.0
2017-Jun-22 07:47N 38°43' W 009°07'0 0.0
2017-Jun-22 07:30N 38°43' W 009°07'0 0.0
2017-Jun-22 07:00N 38°43' W 009°07'0 0.1
2017-Jun-22 06:30N 38°43' W 009°07'510.4
2017-Jun-22 05:59N 38°41' W 009°13'710.2
2017-Jun-22 05:20N 38°38' W 009°21'514.1
2017-Jun-22 05:00N 38°35' W 009°25'714.6
2017-Jun-22 04:30N 38°30' W 009°32'714.5
2017-Jun-22 04:00N 38°25' W 009°38'714.6
2017-Jun-22 03:30N 38°19' W 009°44'1614.5
2017-Jun-22 02:25N 38°09' W 009°59'714.9
2017-Jun-22 01:59N 38°04' W 010°05'714.9
2017-Jun-22 01:30N 37°59' W 010°11'714.9
2017-Jun-22 01:00N 37°54' W 010°18'814.4
2017-Jun-22 00:29N 37°48' W 010°24'714.3
2017-Jun-22 00:01N 37°43' W 010°30'714.7
2017-Jun-21 23:31N 37°38' W 010°37'714.6
2017-Jun-21 23:01N 37°33' W 010°44'714.6
2017-Jun-21 22:31N 37°28' W 010°50'714.6
2017-Jun-21 22:00N 37°22' W 010°56'1114.3
2017-Jun-21 21:14N 37°14' W 011°06'314.2
2017-Jun-21 21:00N 37°12' W 011°08'  
2017-Jun-18 12:00N 35°50' W 012°53'714.9
2017-Jun-18 11:30N 35°55' W 012°46'815.2
2017-Jun-18 11:01N 36°00' W 012°40'815.4
2017-Jun-18 10:30N 36°06' W 012°33'815.4
2017-Jun-18 10:00N 36°11' W 012°26'815.4
2017-Jun-18 09:30N 36°16' W 012°19'815.5
2017-Jun-18 09:00N 36°22' W 012°12'815.4
2017-Jun-18 08:30N 36°27' W 012°06'815.2
2017-Jun-18 08:00N 36°33' W 011°59'815.1
2017-Jun-18 07:30N 36°38' W 011°52'714.9
2017-Jun-18 07:00N 36°43' W 011°46'815.2
2017-Jun-18 06:30N 36°49' W 011°39'815.0
2017-Jun-18 06:00N 36°54' W 011°33'815.4
2017-Jun-18 05:30N 36°60' W 011°26'815.2
2017-Jun-18 05:00N 37°05' W 011°19'815.2
2017-Jun-18 04:30N 37°10' W 011°13'815.4
2017-Jun-18 04:01N 37°16' W 011°06'815.7
2017-Jun-18 03:31N 37°21' W 010°59'815.4
2017-Jun-18 03:00N 37°27' W 010°52'815.3
2017-Jun-18 02:30N 37°33' W 010°46'815.2
2017-Jun-18 02:00N 37°38' W 010°39'714.8
2017-Jun-18 01:30N 37°43' W 010°32'714.7
2017-Jun-18 01:00N 37°49' W 010°26'714.7
2017-Jun-18 00:30N 37°54' W 010°19'714.8
2017-Jun-18 00:00N 37°59' W 010°12'815.0
2017-Jun-17 23:30N 38°04' W 010°05'715.1
2017-Jun-17 23:00N 38°09' W 009°58'815.2
2017-Jun-17 22:30N 38°14' W 009°52'815.4
2017-Jun-17 22:00N 38°20' W 009°45'815.5
2017-Jun-17 21:30N 38°26' W 009°38'815.4
2017-Jun-17 21:00N 38°31' W 009°31'815.5
2017-Jun-17 20:30N 38°36' W 009°24'714.3
2017-Jun-17 20:00N 38°41' W 009°17'612.0
2017-Jun-17 19:30N 38°42' W 009°09'2 4.7
2017-Jun-17 19:00N 38°43' W 009°07'0 0.0
2017-Jun-17 18:30N 38°43' W 009°07'0 0.2
2017-Jun-17 18:00N 38°43' W 009°07'0 0.0
2017-Jun-17 17:30N 38°43' W 009°07'0 0.0
2017-Jun-17 17:00N 38°43' W 009°07'0 0.0
2017-Jun-17 16:30N 38°43' W 009°07'0 0.0
2017-Jun-17 16:00N 38°43' W 009°07'0 0.0
2017-Jun-17 15:30N 38°43' W 009°07'0 0.0
2017-Jun-17 15:00N 38°43' W 009°07'0 0.0
2017-Jun-17 14:00N 38°43' W 009°07'0 0.0
2017-Jun-17 13:30N 38°43' W 009°07'0 0.0
2017-Jun-17 13:00N 38°43' W 009°07'0 0.0
2017-Jun-17 12:30N 38°43' W 009°07'0 0.0
2017-Jun-17 12:00N 38°43' W 009°07'0 0.0
2017-Jun-17 11:30N 38°43' W 009°07'0 0.0
2017-Jun-17 11:00N 38°43' W 009°07'0 0.0
2017-Jun-17 10:30N 38°43' W 009°07'0 0.0
2017-Jun-17 10:00N 38°43' W 009°07'0 0.0
2017-Jun-17 09:30N 38°43' W 009°07'0 0.0
2017-Jun-17 09:00N 38°43' W 009°07'0 0.0
2017-Jun-17 08:30N 38°43' W 009°07'0 0.0
2017-Jun-17 08:00N 38°43' W 009°07'0 0.4
2017-Jun-17 07:30N 38°43' W 009°06'5 9.0
2017-Jun-17 06:59N 38°41' W 009°12'612.1
2017-Jun-17 06:30N 38°40' W 009°19'815.4
2017-Jun-17 06:00N 38°37' W 009°28'816.7
2017-Jun-17 05:30N 38°39' W 009°39'714.9
2017-Jun-17 05:00N 38°45' W 009°43'917.1
2017-Jun-17 04:30N 38°54' W 009°44'817.0
2017-Jun-17 04:00N 39°02' W 009°44'816.6
2017-Jun-17 03:30N 39°11' W 009°44'917.3
2017-Jun-17 03:00N 39°19' W 009°47'816.8
2017-Jun-17 02:30N 39°28' W 009°46'816.1
2017-Jun-17 02:00N 39°35' W 009°42'817.0
2017-Jun-17 01:30N 39°43' W 009°37'917.0
2017-Jun-17 01:00N 39°50' W 009°31'917.4
2017-Jun-17 00:30N 39°59' W 009°29'816.6
2017-Jun-17 00:00N 40°06' W 009°24'816.8
2017-Jun-16 23:30N 40°13' W 009°19'817.0
2017-Jun-16 23:00N 40°21' W 009°14'816.7
2017-Jun-16 22:30N 40°29' W 009°10'917.1
2017-Jun-16 22:00N 40°37' W 009°05'916.5
2017-Jun-16 21:29N 40°45' W 009°01'816.5
2017-Jun-16 21:00N 40°52' W 008°56'816.5
2017-Jun-16 20:30N 40°59' W 008°51'14 9.1
2017-Jun-16 18:59N 41°11' W 008°42'0 0.1
2017-Jun-16 18:29N 41°11' W 008°42'0 0.0
2017-Jun-16 18:00N 41°11' W 008°42'0 0.0
2017-Jun-16 17:30N 41°11' W 008°42'0 0.0
2017-Jun-16 16:59N 41°11' W 008°42'0 0.0
2017-Jun-16 16:30N 41°11' W 008°42'0 0.0
2017-Jun-16 16:00N 41°11' W 008°42'  

Dump ship's entire track history